createdAt,value
2019-05-21T00:01:22.883Z,16.25
2019-05-21T00:03:56.618Z,16.44
2019-05-21T00:06:30.346Z,16.44
2019-05-21T00:09:04.786Z,16.36
2019-05-21T00:11:38.522Z,16.39
2019-05-21T00:14:12.219Z,16.32
2019-05-21T00:16:45.935Z,16.31
2019-05-21T00:19:19.660Z,16.31
2019-05-21T00:21:53.362Z,16.39
2019-05-21T00:24:27.078Z,16.30
2019-05-21T00:27:00.815Z,16.30
2019-05-21T00:30:11.024Z,16.14
2019-05-21T00:33:21.253Z,16.16
2019-05-21T00:36:31.727Z,15.91
2019-05-21T00:39:42.073Z,15.68
2019-05-21T00:42:19.044Z,15.60
2019-05-21T00:44:52.747Z,15.76
2019-05-21T00:47:26.475Z,15.76
2019-05-21T00:50:00.179Z,15.86
2019-05-21T00:52:33.985Z,15.85
2019-05-21T00:55:07.712Z,15.88
2019-05-21T00:57:41.422Z,15.60
2019-05-21T01:00:15.327Z,15.74
2019-05-21T01:02:49.120Z,15.63
2019-05-21T01:05:22.853Z,15.97
2019-05-21T01:07:56.929Z,16.09
2019-05-21T01:10:30.858Z,16.03
2019-05-21T01:13:08.298Z,15.91
2019-05-21T01:15:42.268Z,15.72
2019-05-21T01:18:15.991Z,15.72
2019-05-21T01:20:49.772Z,15.36
2019-05-21T01:23:23.551Z,15.43
2019-05-21T01:25:57.262Z,15.43
2019-05-21T01:28:30.974Z,15.56
2019-05-21T01:31:05.238Z,15.33
2019-05-21T01:33:38.989Z,15.31
2019-05-21T01:36:13.243Z,15.31
2019-05-21T01:38:46.992Z,15.03
2019-05-21T01:41:20.696Z,15.40
2019-05-21T01:43:54.413Z,15.18
2019-05-21T01:46:28.122Z,15.18
2019-05-21T01:49:01.992Z,15.20
2019-05-21T01:51:35.699Z,15.20
2019-05-21T01:54:09.420Z,15.09
2019-05-21T01:56:43.390Z,14.90
2019-05-21T01:59:17.123Z,14.90
2019-05-21T02:01:50.821Z,14.83
2019-05-21T02:04:24.537Z,14.99
2019-05-21T02:06:58.430Z,15.12
2019-05-21T02:09:32.209Z,15.24
2019-05-21T02:12:05.939Z,15.20
2019-05-21T02:14:39.676Z,15.19
2019-05-21T02:17:13.415Z,15.14
2019-05-21T02:19:47.140Z,14.96
2019-05-21T02:22:20.848Z,14.94
2019-05-21T02:24:54.562Z,14.94
2019-05-21T02:27:28.285Z,14.95
2019-05-21T02:30:02.299Z,15.18
2019-05-21T02:32:36.529Z,15.09
2019-05-21T02:35:10.235Z,15.09
2019-05-21T02:37:43.943Z,14.82
2019-05-21T02:40:17.658Z,14.82
2019-05-21T02:42:51.371Z,15.03
2019-05-21T02:45:25.093Z,14.96
2019-05-21T02:47:58.794Z,15.00
2019-05-21T02:50:32.524Z,14.88
2019-05-21T02:53:06.234Z,14.85
2019-05-21T02:55:39.944Z,15.00
2019-05-21T02:58:13.656Z,14.89
2019-05-21T03:00:47.372Z,14.87
2019-05-21T03:03:21.088Z,14.96
2019-05-21T03:06:12.471Z,14.96
2019-05-21T03:08:30.207Z,14.89
2019-05-21T03:11:03.936Z,14.89
2019-05-21T03:13:37.654Z,15.04
2019-05-21T03:16:11.353Z,14.96
2019-05-21T03:18:45.077Z,14.86
2019-05-21T03:21:18.802Z,14.92
2019-05-21T03:23:52.521Z,14.65
2019-05-21T03:26:26.299Z,14.70
2019-05-21T03:29:00.019Z,14.97
2019-05-21T03:31:33.739Z,14.87
2019-05-21T03:34:07.427Z,14.76
2019-05-21T03:36:41.142Z,14.76
2019-05-21T03:39:19.115Z,14.41
2019-05-21T03:41:50.268Z,14.42
2019-05-21T03:44:23.978Z,14.43
2019-05-21T03:46:57.692Z,14.76
2019-05-21T03:49:31.774Z,14.76
2019-05-21T03:52:05.488Z,14.56
2019-05-21T03:54:39.200Z,14.64
2019-05-21T03:57:13.889Z,14.64
2019-05-21T03:59:47.579Z,14.42
2019-05-21T04:02:21.288Z,14.68
2019-05-21T04:04:55.014Z,14.68
2019-05-21T04:07:28.727Z,15.16
2019-05-21T04:10:03.212Z,15.16
2019-05-21T04:12:36.932Z,14.95
2019-05-21T04:15:10.670Z,14.95
2019-05-21T04:17:44.374Z,14.96
2019-05-21T04:20:18.105Z,14.79
2019-05-21T04:22:51.849Z,14.66
2019-05-21T04:25:25.534Z,14.82
2019-05-21T04:27:59.355Z,14.82
2019-05-21T04:30:33.156Z,14.81
2019-05-21T04:33:06.969Z,14.94
2019-05-21T04:35:40.673Z,14.86
2019-05-21T04:38:14.410Z,15.20
2019-05-21T04:40:48.292Z,15.20
2019-05-21T04:43:22.072Z,15.31
2019-05-21T04:45:55.854Z,15.27
2019-05-21T04:48:29.618Z,15.27
2019-05-21T04:51:03.393Z,15.16
2019-05-21T04:53:37.137Z,15.06
2019-05-21T04:56:10.853Z,15.16
2019-05-21T04:58:44.573Z,15.16
2019-05-21T05:01:18.294Z,14.91
2019-05-21T05:03:52.008Z,14.79
2019-05-21T05:06:25.832Z,14.75
2019-05-21T05:08:59.530Z,14.71
2019-05-21T05:11:33.514Z,14.69
2019-05-21T05:14:07.225Z,14.75
2019-05-21T05:16:40.952Z,14.62
2019-05-21T05:19:14.667Z,14.62
2019-05-21T05:21:48.377Z,14.67
2019-05-21T05:24:22.090Z,14.61
2019-05-21T05:26:55.790Z,14.70
2019-05-21T05:29:29.506Z,14.70
2019-05-21T05:32:03.194Z,14.87
2019-05-21T05:34:36.945Z,14.94
2019-05-21T05:37:10.716Z,15.13
2019-05-21T05:39:44.432Z,15.13
2019-05-21T05:42:18.164Z,14.96
2019-05-21T05:44:52.971Z,14.98
2019-05-21T05:47:29.700Z,15.02
2019-05-21T05:50:04.737Z,15.08
2019-05-21T05:52:38.465Z,14.86
2019-05-21T05:55:13.195Z,14.82
2019-05-21T05:57:46.936Z,14.82
2019-05-21T06:00:21.017Z,14.89
2019-05-21T06:02:54.741Z,15.33
2019-05-21T06:05:28.446Z,15.33
2019-05-21T06:08:02.190Z,14.96
2019-05-21T06:10:39.808Z,15.09
2019-05-21T06:13:11.372Z,15.10
2019-05-21T06:15:45.074Z,15.07
2019-05-21T06:18:18.809Z,15.22
2019-05-21T06:20:52.512Z,15.07
2019-05-21T06:23:26.254Z,14.94
2019-05-21T06:25:59.972Z,14.94
2019-05-21T06:28:33.702Z,14.81
2019-05-21T06:31:07.419Z,14.86
2019-05-21T06:33:41.296Z,14.75
2019-05-21T06:36:15.019Z,14.70
2019-05-21T06:38:48.726Z,14.65
2019-05-21T06:41:22.421Z,14.75
2019-05-21T06:43:56.152Z,14.75
2019-05-21T06:46:29.849Z,15.01
2019-05-21T06:49:03.574Z,14.91
2019-05-21T06:51:37.310Z,14.69
2019-05-21T06:54:11.021Z,14.99
2019-05-21T06:56:44.752Z,14.99
2019-05-21T06:59:18.542Z,15.01
2019-05-21T07:01:52.342Z,15.00
2019-05-21T07:04:26.078Z,15.00
2019-05-21T07:06:59.781Z,15.00
2019-05-21T07:09:33.507Z,15.11
2019-05-21T07:12:07.227Z,15.40
2019-05-21T07:14:40.955Z,15.56
2019-05-21T07:17:14.658Z,15.56
2019-05-21T07:19:48.377Z,15.80
2019-05-21T07:22:22.098Z,15.42
2019-05-21T07:24:55.801Z,15.40
2019-05-21T07:27:29.512Z,15.62
2019-05-21T07:30:04.053Z,15.80
2019-05-21T07:32:37.796Z,15.80
2019-05-21T07:35:12.097Z,15.66
2019-05-21T07:37:45.813Z,15.60
2019-05-21T07:40:19.542Z,15.55
2019-05-21T07:42:53.274Z,15.55
2019-05-21T07:45:27.004Z,15.47
2019-05-21T07:48:00.718Z,15.47
2019-05-21T07:50:35.201Z,15.74
2019-05-21T07:53:08.923Z,15.43
2019-05-21T07:55:42.626Z,15.34
2019-05-21T07:58:16.357Z,15.34
2019-05-21T08:00:50.067Z,15.20
2019-05-21T08:03:23.782Z,15.17
2019-05-21T08:05:57.499Z,15.19
2019-05-21T08:08:31.252Z,15.19
2019-05-21T08:11:05.202Z,15.18
2019-05-21T08:13:38.971Z,15.09
2019-05-21T08:16:13.541Z,15.09
2019-05-21T08:18:47.286Z,14.85
2019-05-21T08:21:21.028Z,14.85
2019-05-21T08:23:54.794Z,15.00
2019-05-21T08:26:28.647Z,15.00
2019-05-21T08:29:02.374Z,14.88
2019-05-21T08:31:36.096Z,15.07
2019-05-21T08:34:09.887Z,15.02
2019-05-21T08:36:43.723Z,14.85
2019-05-21T08:39:28.248Z,14.78
2019-05-21T08:41:53.052Z,14.78
2019-05-21T08:44:26.780Z,14.71
2019-05-21T08:47:00.561Z,14.68
2019-05-21T08:49:34.404Z,14.68
2019-05-21T08:52:08.152Z,14.51
2019-05-21T08:54:41.974Z,14.62
2019-05-21T08:57:15.700Z,14.92
2019-05-21T08:59:49.542Z,14.92
2019-05-21T09:02:23.254Z,15.25
2019-05-21T09:04:57.006Z,15.33
2019-05-21T09:07:30.765Z,15.18
2019-05-21T09:10:06.246Z,14.86
2019-05-21T09:12:39.963Z,14.71
2019-05-21T09:15:15.265Z,14.71
2019-05-21T09:17:48.993Z,14.70
2019-05-21T09:20:22.726Z,14.59
2019-05-21T09:22:57.225Z,14.59
2019-05-21T09:25:36.850Z,14.71
2019-05-21T09:28:10.616Z,14.59
2019-05-21T09:30:44.388Z,14.59
2019-05-21T09:33:18.181Z,14.38
2019-05-21T09:35:51.894Z,14.16
2019-05-21T09:38:25.630Z,14.32
2019-05-21T09:40:59.405Z,14.32
2019-05-21T09:43:33.135Z,14.48
2019-05-21T09:46:06.866Z,14.15
2019-05-21T09:48:40.615Z,14.24
2019-05-21T09:51:19.884Z,14.38
2019-05-21T09:53:49.844Z,14.28
2019-05-21T09:56:23.553Z,14.16
2019-05-21T09:58:57.273Z,14.16
2019-05-21T10:01:31.008Z,14.38
2019-05-21T10:04:04.742Z,14.38
2019-05-21T10:06:38.511Z,14.65
2019-05-21T10:09:13.137Z,14.65
2019-05-21T10:11:47.023Z,15.33
2019-05-21T10:14:20.730Z,14.94
2019-05-21T10:16:54.702Z,15.41
2019-05-21T10:19:28.436Z,14.97
2019-05-21T10:22:02.329Z,14.64
2019-05-21T10:24:36.073Z,14.62
2019-05-21T10:27:09.795Z,14.91
2019-05-21T10:29:43.504Z,14.91
2019-05-21T10:32:17.218Z,14.71
2019-05-21T10:34:50.937Z,14.74
2019-05-21T10:37:24.660Z,14.80
2019-05-21T10:39:58.389Z,14.95
2019-05-21T10:42:32.120Z,15.03
2019-05-21T10:45:05.913Z,15.02
2019-05-21T10:47:39.591Z,14.97
2019-05-21T10:50:13.303Z,15.13
2019-05-21T10:52:47.016Z,15.50
2019-05-21T10:55:20.783Z,15.50
2019-05-21T10:57:54.541Z,15.52
2019-05-21T11:00:28.251Z,15.21
2019-05-21T11:03:02.029Z,15.21
2019-05-21T11:05:35.794Z,15.15
2019-05-21T11:08:25.543Z,15.15
2019-05-21T11:10:44.961Z,15.12
2019-05-21T11:13:18.680Z,14.98
2019-05-21T11:15:52.394Z,15.07
2019-05-21T11:18:26.117Z,15.07
2019-05-21T11:20:59.825Z,15.27
2019-05-21T11:23:33.656Z,15.27
2019-05-21T11:26:07.344Z,15.44
2019-05-21T11:28:41.076Z,15.33
2019-05-21T11:31:14.805Z,15.33
2019-05-21T11:33:48.605Z,15.23
2019-05-21T11:36:22.331Z,15.27
2019-05-21T11:38:56.038Z,15.12
2019-05-21T11:41:29.746Z,15.12
2019-05-21T11:44:03.502Z,15.62
2019-05-21T11:46:37.287Z,15.62
2019-05-21T11:49:10.979Z,15.56
2019-05-21T11:51:44.700Z,15.56
2019-05-21T11:54:18.461Z,15.48
2019-05-21T11:56:52.174Z,15.79
2019-05-21T11:59:25.898Z,16.06
2019-05-21T12:01:59.623Z,15.95
2019-05-21T12:04:33.355Z,15.92
2019-05-21T12:07:07.070Z,15.92
2019-05-21T12:09:40.789Z,16.25
2019-05-21T12:12:14.507Z,16.17
2019-05-21T12:14:48.237Z,16.17
2019-05-21T12:17:21.944Z,16.61
2019-05-21T12:19:55.652Z,16.73
2019-05-21T12:22:29.374Z,16.82
2019-05-21T12:25:03.842Z,16.53
2019-05-21T12:27:37.556Z,16.33
2019-05-21T12:30:11.265Z,16.43
2019-05-21T12:32:45.711Z,16.37
2019-05-21T12:35:19.428Z,16.37
2019-05-21T12:37:53.141Z,16.55
2019-05-21T12:40:26.849Z,16.31
2019-05-21T12:43:00.569Z,16.31
2019-05-21T12:45:34.270Z,16.94
2019-05-21T12:48:07.992Z,16.94
2019-05-21T12:50:41.744Z,16.89
2019-05-21T12:53:16.743Z,16.89
2019-05-21T12:55:50.585Z,16.80
2019-05-21T12:58:24.339Z,17.04
2019-05-21T13:00:58.120Z,17.32
2019-05-21T13:03:31.831Z,17.32
2019-05-21T13:06:05.579Z,17.19
2019-05-21T13:08:39.356Z,17.29
2019-05-21T13:11:14.029Z,17.29
2019-05-21T13:13:47.742Z,17.08
2019-05-21T13:16:21.537Z,17.24
2019-05-21T13:18:55.328Z,17.55
2019-05-21T13:21:29.048Z,17.55
2019-05-21T13:24:02.765Z,17.33
2019-05-21T13:26:36.486Z,17.33
2019-05-21T13:29:10.191Z,17.12
2019-05-21T13:31:43.910Z,17.08
2019-05-21T13:34:17.647Z,17.23
2019-05-21T13:36:51.336Z,17.23
2019-05-21T13:39:25.752Z,17.56
2019-05-21T13:41:59.669Z,17.35
2019-05-21T13:44:33.364Z,17.67
2019-05-21T13:47:07.210Z,17.34
2019-05-21T13:49:41.147Z,17.34
2019-05-21T13:52:14.853Z,17.54
2019-05-21T13:54:48.605Z,17.85
2019-05-21T13:57:22.614Z,17.85
2019-05-21T13:59:56.531Z,17.80
2019-05-21T14:02:30.315Z,17.91
2019-05-21T14:05:04.679Z,17.71
2019-05-21T14:07:38.401Z,17.71
2019-05-21T14:10:18.285Z,17.89
2019-05-21T14:12:48.669Z,18.13
2019-05-21T14:15:22.406Z,18.13
2019-05-21T14:17:56.110Z,18.24
2019-05-21T14:20:29.849Z,18.24
2019-05-21T14:23:03.732Z,18.22
2019-05-21T14:25:37.427Z,18.31
2019-05-21T14:28:11.127Z,18.18
2019-05-21T14:30:44.851Z,18.18
2019-05-21T14:33:18.597Z,18.34
2019-05-21T14:35:52.309Z,18.34
2019-05-21T14:38:26.107Z,18.47
2019-05-21T14:41:00.210Z,18.51
2019-05-21T14:43:33.926Z,18.56
2019-05-21T14:46:07.660Z,18.43
2019-05-21T14:48:41.389Z,18.36
2019-05-21T14:51:15.086Z,18.36
2019-05-21T14:53:48.788Z,18.66
2019-05-21T14:56:22.529Z,18.54
2019-05-21T14:58:56.300Z,18.10
2019-05-21T15:01:30.066Z,18.11
2019-05-21T15:04:03.900Z,18.37
2019-05-21T15:06:37.756Z,18.35
2019-05-21T15:09:11.466Z,18.35
2019-05-21T15:11:45.187Z,18.24
2019-05-21T15:14:18.907Z,18.24
2019-05-21T15:16:52.619Z,18.24
2019-05-21T15:19:26.330Z,18.44
2019-05-21T15:22:00.051Z,18.75
2019-05-21T15:24:33.809Z,18.58
2019-05-21T15:27:07.573Z,18.68
2019-05-21T15:29:41.286Z,18.72
2019-05-21T15:32:15.011Z,18.72
2019-05-21T15:34:48.715Z,18.50
2019-05-21T15:37:22.447Z,18.50
2019-05-21T15:39:56.158Z,18.63
2019-05-21T15:42:30.064Z,18.63
2019-05-21T15:45:05.285Z,18.41
2019-05-21T15:47:39.006Z,18.41
2019-05-21T15:50:13.574Z,18.44
2019-05-21T15:52:47.286Z,18.58
2019-05-21T15:55:21.007Z,18.45
2019-05-21T15:57:54.736Z,18.49
2019-05-21T16:00:28.490Z,18.30
2019-05-21T16:03:02.260Z,18.41
2019-05-21T16:05:36.002Z,18.41
2019-05-21T16:08:09.714Z,18.21
2019-05-21T16:10:43.462Z,18.13
2019-05-21T16:13:17.228Z,18.13
2019-05-21T16:15:50.958Z,18.14
2019-05-21T16:18:24.655Z,18.20
2019-05-21T16:20:58.353Z,18.20
2019-05-21T16:23:32.096Z,18.37
2019-05-21T16:26:05.946Z,18.24
2019-05-21T16:28:39.676Z,18.10
2019-05-21T16:31:13.758Z,18.10
2019-05-21T16:33:47.458Z,17.97
2019-05-21T16:36:21.187Z,17.94
2019-05-21T16:38:55.003Z,18.11
2019-05-21T16:41:43.629Z,18.01
2019-05-21T16:44:04.636Z,18.01
2019-05-21T16:46:38.397Z,17.92
2019-05-21T16:49:12.299Z,17.66
2019-05-21T16:51:46.003Z,17.66
2019-05-21T16:54:19.702Z,17.76
2019-05-21T16:56:53.535Z,17.75
2019-05-21T16:59:27.272Z,17.95
2019-05-21T17:02:00.978Z,17.87
2019-05-21T17:04:34.794Z,18.00
2019-05-21T17:07:08.513Z,18.38
2019-05-21T17:09:42.211Z,18.42
2019-05-21T17:12:15.929Z,18.42
2019-05-21T17:14:50.081Z,18.10
2019-05-21T17:17:23.916Z,17.72
2019-05-21T17:19:57.635Z,17.72
2019-05-21T17:22:31.385Z,17.67
2019-05-21T17:25:06.315Z,17.67
2019-05-21T17:27:40.022Z,17.95
2019-05-21T17:30:15.051Z,17.95
2019-05-21T17:32:48.817Z,17.97
2019-05-21T17:35:22.581Z,17.96
2019-05-21T17:37:56.418Z,17.96
2019-05-21T17:40:30.126Z,17.74
2019-05-21T17:43:03.923Z,17.77
2019-05-21T17:45:37.655Z,17.76
2019-05-21T17:48:11.385Z,17.76
2019-05-21T17:50:48.041Z,17.71
2019-05-21T17:53:22.255Z,17.71
2019-05-21T17:55:55.984Z,17.74
2019-05-21T17:58:30.182Z,17.65
2019-05-21T18:01:03.933Z,17.54
2019-05-21T18:03:37.651Z,17.54
2019-05-21T18:06:12.109Z,17.67
2019-05-21T18:08:45.853Z,17.67
2019-05-21T18:11:19.571Z,17.47
2019-05-21T18:13:53.296Z,17.47
2019-05-21T18:16:27.051Z,17.41
2019-05-21T18:19:01.743Z,17.41
2019-05-21T18:21:35.491Z,17.30
2019-05-21T18:24:10.478Z,17.41
2019-05-21T18:26:44.228Z,17.66
2019-05-21T18:29:17.953Z,17.46
2019-05-21T18:31:53.136Z,17.74
2019-05-21T18:34:26.970Z,17.74
2019-05-21T18:37:00.697Z,17.16
2019-05-21T18:39:34.503Z,17.04
2019-05-21T18:42:21.081Z,16.82
2019-05-21T18:44:43.749Z,16.89
2019-05-21T18:47:17.553Z,16.89
2019-05-21T18:49:51.272Z,16.79
2019-05-21T18:52:25.004Z,16.79
2019-05-21T18:54:58.804Z,16.70
2019-05-21T18:57:32.613Z,16.70
2019-05-21T19:00:08.236Z,16.45
2019-05-21T19:02:41.952Z,16.45
2019-05-21T19:05:15.703Z,16.50
2019-05-21T19:07:49.432Z,16.52
2019-05-21T19:10:23.180Z,16.52
2019-05-21T19:13:00.444Z,16.28
2019-05-21T19:15:32.355Z,16.28
2019-05-21T19:18:06.077Z,16.40
2019-05-21T19:20:39.821Z,16.47
2019-05-21T19:23:13.546Z,16.13
2019-05-21T19:25:47.269Z,16.10
2019-05-21T19:28:21.007Z,16.10
2019-05-21T19:30:54.753Z,16.13
2019-05-21T19:33:28.484Z,16.13
2019-05-21T19:36:02.399Z,16.17
2019-05-21T19:38:37.242Z,16.17
2019-05-21T19:41:11.174Z,16.18
2019-05-21T19:43:44.935Z,15.98
2019-05-21T19:46:18.683Z,15.98
2019-05-21T19:48:52.432Z,15.79
2019-05-21T19:51:26.518Z,15.79
2019-05-21T19:54:00.277Z,15.80
2019-05-21T19:56:36.391Z,15.74
2019-05-21T19:59:09.508Z,15.52
2019-05-21T20:01:43.208Z,15.52
2019-05-21T20:04:16.942Z,15.41
2019-05-21T20:06:50.694Z,15.52
2019-05-21T20:09:26.842Z,15.18
2019-05-21T20:12:00.119Z,15.07
2019-05-21T20:14:33.877Z,15.14
2019-05-21T20:17:07.630Z,15.14
2019-05-21T20:19:41.882Z,15.05
2019-05-21T20:22:15.984Z,15.02
2019-05-21T20:24:49.683Z,14.95
2019-05-21T20:27:23.444Z,14.95
2019-05-21T20:30:11.687Z,14.95
2019-05-21T20:32:33.344Z,14.85
2019-05-21T20:35:07.268Z,15.04
2019-05-21T20:37:41.032Z,14.65
2019-05-21T20:40:14.938Z,14.66
2019-05-21T20:42:48.619Z,14.66
2019-05-21T20:45:22.493Z,14.62
2019-05-21T20:47:57.063Z,14.71
2019-05-21T20:50:30.847Z,14.78
2019-05-21T20:53:04.642Z,14.52
2019-05-21T20:55:38.368Z,14.39
2019-05-21T20:58:12.116Z,14.39
2019-05-21T21:00:45.871Z,14.38
2019-05-21T21:03:19.617Z,14.38
2019-05-21T21:05:53.411Z,14.48
2019-05-21T21:08:27.969Z,14.48
2019-05-21T21:11:01.882Z,14.53
2019-05-21T21:13:35.961Z,14.42
2019-05-21T21:16:10.324Z,14.84
2019-05-21T21:18:44.474Z,14.57
2019-05-21T21:21:18.409Z,14.57
2019-05-21T21:23:52.259Z,14.67
2019-05-21T21:26:26.080Z,14.42
2019-05-21T21:28:59.887Z,14.42
2019-05-21T21:31:33.749Z,14.48
2019-05-21T21:34:07.453Z,14.34
2019-05-21T21:36:41.427Z,14.34
2019-05-21T21:39:15.171Z,14.62
2019-05-21T21:41:48.972Z,14.47
2019-05-21T21:44:33.583Z,14.67
2019-05-21T21:46:58.226Z,14.66
2019-05-21T21:49:31.966Z,14.43
2019-05-21T21:52:05.712Z,14.43
2019-05-21T21:54:39.581Z,14.03
2019-05-21T21:57:14.069Z,14.06
2019-05-21T21:59:47.879Z,13.89
2019-05-21T22:02:27.806Z,13.89
2019-05-21T22:05:01.610Z,13.74
2019-05-21T22:07:35.440Z,13.75
2019-05-21T22:10:09.139Z,13.75
2019-05-21T22:12:42.859Z,13.77
2019-05-21T22:15:16.599Z,13.77
2019-05-21T22:17:50.341Z,13.72
2019-05-21T22:20:24.091Z,13.96
2019-05-21T22:22:57.821Z,13.96
2019-05-21T22:25:31.566Z,13.55
2019-05-21T22:28:05.795Z,13.57
2019-05-21T22:30:39.622Z,13.61
2019-05-21T22:33:13.512Z,13.68
2019-05-21T22:35:47.240Z,13.66
2019-05-21T22:38:21.026Z,13.53
2019-05-21T22:40:54.744Z,13.87
2019-05-21T22:43:28.448Z,14.06
2019-05-21T22:46:02.166Z,13.88
2019-05-21T22:48:35.888Z,13.82
2019-05-21T22:51:09.591Z,13.55
2019-05-21T22:53:43.341Z,13.57
2019-05-21T22:56:17.053Z,13.57
2019-05-21T22:58:50.787Z,13.57
2019-05-21T23:01:24.490Z,13.52
2019-05-21T23:03:58.309Z,13.53
2019-05-21T23:06:32.059Z,13.49
2019-05-21T23:09:06.289Z,13.71
2019-05-21T23:11:40.006Z,13.75
2019-05-21T23:14:13.708Z,13.55
2019-05-21T23:16:47.420Z,13.70
2019-05-21T23:19:24.125Z,13.70
2019-05-21T23:21:56.750Z,13.40
2019-05-21T23:24:30.464Z,13.54
2019-05-21T23:27:04.183Z,13.68
2019-05-21T23:29:37.998Z,13.60
2019-05-21T23:32:11.784Z,13.76
2019-05-21T23:34:45.506Z,13.68
2019-05-21T23:37:19.219Z,13.68
2019-05-21T23:39:52.935Z,13.78
2019-05-21T23:42:29.868Z,14.13
2019-05-21T23:45:02.150Z,14.28
2019-05-21T23:47:35.989Z,14.24
2019-05-21T23:50:11.182Z,14.02
2019-05-21T23:52:44.899Z,14.02
2019-05-21T23:55:18.600Z,14.25
2019-05-21T23:57:52.313Z,14.11
